Metar z pełnej godziny Komunikat METAR ze strony awiacja.imgw.pl Metar G00 EPGD METAR EPGD 220600Z 30017KT 9999 OVC017 05/02 Q1019 =